Time;durP1;ratioP1;P1;durP2;ratioP2;P2;SDS_P1;SDS_P2;PMS_P1;PMS_P2;Temp;Humidity;BMP_temperature;BMP_pressure;BME280_temperature;BME280_humidity;BME280_pressure;Samples;Min_cycle;Max_cycle;Signal;HPM_P1;HPM_P2
2022/01/31 00:01:43;;;;;;;21.23;4.07;;;4.00;99.90;;;;;;5074473;28;20411;-83
2022/01/31 00:04:09;;;;;;;17.50;4.13;;;3.90;99.90;;;;;;5074542;28;20470;-87
2022/01/31 00:06:34;;;;;;;19.73;4.80;;;3.90;99.90;;;;;;5074443;28;20177;-86
2022/01/31 00:09:00;;;;;;;17.63;3.47;;;4.00;99.90;;;;;;5074399;28;20628;-85
2022/01/31 00:11:26;;;;;;;21.57;2.83;;;3.90;99.90;;;;;;5074329;28;20249;-84
2022/01/31 00:14:02;;;;;;;17.77;3.57;;;3.90;99.90;;;;;;5072497;28;20248;-83
2022/01/31 00:16:32;;;;;;;19.17;3.30;;;3.90;99.90;;;;;;5074445;28;20169;-87
2022/01/31 00:18:59;;;;;;;15.13;3.00;;;3.90;99.90;;;;;;5073148;28;20784;-84
2022/01/31 00:21:24;;;;;;;15.10;3.20;;;3.90;99.90;;;;;;5074293;28;20409;-85
2022/01/31 00:23:50;;;;;;;20.17;5.13;;;3.80;99.90;;;;;;5073869;28;20983;-85
2022/01/31 00:26:15;;;;;;;19.27;4.00;;;3.80;99.90;;;;;;5074253;28;20628;-84
2022/01/31 00:28:41;;;;;;;20.40;3.90;;;3.90;99.90;;;;;;5073700;28;20169;-83
2022/01/31 00:31:06;;;;;;;15.60;3.60;;;3.80;99.90;;;;;;5073894;28;20177;-86
2022/01/31 00:33:32;;;;;;;15.83;3.77;;;3.80;99.90;;;;;;5073950;28;20167;-84
2022/01/31 00:35:57;;;;;;;22.80;4.37;;;3.80;99.90;;;;;;5072557;28;20184;-84
2022/01/31 00:38:23;;;;;;;12.53;2.77;;;3.70;99.90;;;;;;5074020;28;20591;-86
2022/01/31 00:40:48;;;;;;;20.00;4.90;;;3.70;99.90;;;;;;5074012;28;20168;-86
2022/01/31 00:43:15;;;;;;;14.30;3.70;;;3.70;99.90;;;;;;5074421;28;20175;-85
2022/01/31 00:45:46;;;;;;;24.50;4.60;;;3.70;99.90;;;;;;5072636;28;20220;-84
2022/01/31 00:48:19;;;;;;;19.80;3.47;;;3.70;99.90;;;;;;5073702;28;20457;-87
2022/01/31 00:50:47;;;;;;;11.57;3.37;;;3.70;99.90;;;;;;5073640;28;20416;-82
2022/01/31 00:53:13;;;;;;;14.33;2.63;;;3.60;99.90;;;;;;5073393;28;20408;-83
2022/01/31 00:55:38;;;;;;;12.43;3.50;;;3.60;99.90;;;;;;5071185;28;20405;-84
2022/01/31 00:58:04;;;;;;;17.40;4.13;;;3.50;99.90;;;;;;5053108;28;20181;-84
2022/01/31 01:00:29;;;;;;;24.90;4.20;;;3.50;99.90;;;;;;5051925;28;20615;-83
2022/01/31 01:02:55;;;;;;;16.70;3.30;;;3.60;99.90;;;;;;5053483;28;20265;-88
2022/01/31 01:05:20;;;;;;;14.27;4.07;;;3.50;99.90;;;;;;5052099;28;20272;-85
2022/01/31 01:07:46;;;;;;;16.20;3.97;;;3.60;99.90;;;;;;5052748;28;20173;-85
2022/01/31 01:10:15;;;;;;;18.40;4.73;;;3.60;99.90;;;;;;5055416;28;20770;-85
2022/01/31 01:12:40;;;;;;;19.27;3.13;;;3.50;99.90;;;;;;5072418;28;20161;-86
2022/01/31 01:15:06;;;;;;;15.73;2.60;;;3.60;99.90;;;;;;5073390;28;20488;-85
2022/01/31 01:17:32;;;;;;;22.50;3.67;;;3.60;99.90;;;;;;5071971;28;20551;-85
2022/01/31 01:19:58;;;;;;;16.70;2.93;;;3.50;99.90;;;;;;5073239;28;20422;-85
2022/01/31 01:22:23;;;;;;;12.27;2.60;;;3.50;99.90;;;;;;5071981;28;20179;-85
2022/01/31 01:24:49;;;;;;;12.77;3.00;;;3.50;99.90;;;;;;5073220;28;20208;-85
2022/01/31 01:27:18;;;;;;;16.97;2.37;;;3.50;99.90;;;;;;5073160;28;20249;-84
2022/01/31 01:29:45;;;;;;;13.63;2.57;;;3.40;99.90;;;;;;5071486;28;20181;-82
2022/01/31 01:32:11;;;;;;;11.60;2.73;;;3.40;99.90;;;;;;5072905;28;20418;-83
2022/01/31 01:34:36;;;;;;;17.37;4.60;;;3.30;99.90;;;;;;5072979;28;20511;-86
2022/01/31 01:37:03;;;;;;;12.80;3.20;;;3.40;99.90;;;;;;5072969;28;20263;-86
2022/01/31 01:39:29;;;;;;;14.60;3.40;;;3.30;99.90;;;;;;5073285;28;20173;-87
2022/01/31 01:41:55;;;;;;;18.10;4.30;;;3.30;99.90;;;;;;5073597;28;20415;-86
2022/01/31 01:44:40;;;;;;;19.57;3.87;;;3.30;99.90;;;;;;5072970;28;20448;-87
2022/01/31 01:47:06;;;;;;;19.63;2.70;;;3.30;99.90;;;;;;5073505;28;20221;-85
2022/01/31 01:49:32;;;;;;;24.07;3.93;;;3.30;99.90;;;;;;5073798;28;20405;-86
2022/01/31 01:51:57;;;;;;;25.00;5.17;;;3.30;99.90;;;;;;5074009;28;20196;-87
2022/01/31 01:54:23;;;;;;;13.10;3.20;;;3.30;99.90;;;;;;5078326;28;20177;-86
2022/01/31 01:56:48;;;;;;;17.40;3.83;;;3.30;99.90;;;;;;5074070;28;20268;-84
2022/01/31 01:59:14;;;;;;;13.63;2.90;;;3.30;99.90;;;;;;5073857;28;20168;-84
2022/01/31 02:01:39;;;;;;;13.13;2.30;;;3.30;99.90;;;;;;5073848;28;20170;-86
2022/01/31 02:04:05;;;;;;;23.20;3.60;;;3.30;99.90;;;;;;5073006;28;20206;-85
2022/01/31 02:06:30;;;;;;;26.57;4.07;;;3.20;99.90;;;;;;5072900;28;20226;-86
2022/01/31 02:08:56;;;;;;;20.20;3.80;;;3.20;99.90;;;;;;5072767;28;20169;-86
2022/01/31 02:11:22;;;;;;;11.10;3.07;;;3.20;99.90;;;;;;5072891;28;20165;-86
2022/01/31 02:13:47;;;;;;;12.27;3.17;;;3.20;99.90;;;;;;5072127;28;20456;-85
2022/01/31 02:16:13;;;;;;;9.00;2.80;;;3.20;99.90;;;;;;5072835;28;20185;-84
2022/01/31 02:18:47;;;;;;;17.10;3.27;;;3.20;99.90;;;;;;5072841;28;20165;-86
2022/01/31 02:21:13;;;;;;;23.27;3.97;;;3.20;99.90;;;;;;5072781;28;20165;-85
2022/01/31 02:23:39;;;;;;;11.93;3.00;;;3.20;99.90;;;;;;5072591;28;20404;-86
2022/01/31 02:26:06;;;;;;;7.27;2.67;;;3.20;99.90;;;;;;5072790;28;20676;-86
2022/01/31 02:28:36;;;;;;;13.23;2.97;;;3.20;99.90;;;;;;5072492;28;20459;-89
2022/01/31 02:31:03;;;;;;;16.23;3.17;;;3.20;99.90;;;;;;5074033;28;20757;-85
2022/01/31 02:33:29;;;;;;;15.03;2.80;;;3.20;99.90;;;;;;5074551;28;20847;-89
2022/01/31 02:36:00;;;;;;;17.70;3.40;;;3.30;99.90;;;;;;5073421;28;20439;-88
2022/01/31 02:38:27;;;;;;;12.93;3.33;;;3.30;99.90;;;;;;5072201;28;20610;-86
2022/01/31 02:40:53;;;;;;;15.30;3.20;;;3.40;99.90;;;;;;5073583;28;20404;-89
2022/01/31 02:43:23;;;;;;;16.67;3.40;;;3.30;99.90;;;;;;5071928;28;20747;-90
2022/01/31 02:45:50;;;;;;;14.97;3.57;;;3.30;99.90;;;;;;5073832;28;20498;-88
2022/01/31 02:48:19;;;;;;;10.40;2.67;;;3.30;99.90;;;;;;5073480;28;20435;-90
2022/01/31 02:50:44;;;;;;;17.23;3.17;;;3.30;99.90;;;;;;5073867;28;20412;-90
2022/01/31 02:53:22;;;;;;;21.73;2.90;;;3.30;99.90;;;;;;5073468;28;20502;-91
2022/01/31 02:55:48;;;;;;;11.33;3.27;;;3.30;99.90;;;;;;5074175;28;20594;-90
2022/01/31 02:58:14;;;;;;;16.30;2.27;;;3.30;99.90;;;;;;5073734;28;20532;-85
2022/01/31 03:00:40;;;;;;;15.83;3.50;;;3.30;99.90;;;;;;5073762;28;20514;-86
2022/01/31 03:03:06;;;;;;;32.77;3.93;;;3.30;99.90;;;;;;5080334;28;20489;-88
2022/01/31 03:05:32;;;;;;;16.70;3.47;;;3.40;99.90;;;;;;5083809;28;20296;-88
2022/01/31 03:07:58;;;;;;;16.80;3.37;;;3.40;99.90;;;;;;5079140;28;20169;-87
2022/01/31 03:10:24;;;;;;;13.80;3.80;;;3.30;99.90;;;;;;5076338;28;20628;-86
2022/01/31 03:12:50;;;;;;;14.87;3.40;;;3.30;99.90;;;;;;5075755;28;20417;-87
2022/01/31 03:15:15;;;;;;;11.83;3.40;;;3.30;99.90;;;;;;5076111;28;20173;-85
2022/01/31 03:17:46;;;;;;;5.87;2.37;;;3.30;99.90;;;;;;5075866;28;20929;-84
2022/01/31 03:20:11;;;;;;;13.37;2.40;;;3.30;99.90;;;;;;5075932;28;20426;-85
2022/01/31 03:22:37;;;;;;;18.43;3.63;;;3.30;99.90;;;;;;5076171;28;20515;-85
2022/01/31 03:25:03;;;;;;;18.17;2.83;;;3.30;99.90;;;;;;5075625;28;20593;-86
2022/01/31 03:27:28;;;;;;;11.40;4.20;;;3.30;99.90;;;;;;5075146;28;20169;-85
2022/01/31 03:29:54;;;;;;;11.43;3.77;;;3.30;99.90;;;;;;5075630;28;20498;-84
2022/01/31 03:32:19;;;;;;;8.10;2.77;;;3.30;99.90;;;;;;5075551;28;20157;-86
2022/01/31 03:34:45;;;;;;;17.70;2.93;;;3.20;99.90;;;;;;5075487;28;20180;-82
2022/01/31 03:37:10;;;;;;;20.87;3.87;;;3.20;99.90;;;;;;5075415;28;20649;-84
2022/01/31 03:39:36;;;;;;;23.47;2.80;;;3.20;99.90;;;;;;5075342;28;20252;-86
2022/01/31 03:42:01;;;;;;;8.80;2.50;;;3.20;99.90;;;;;;5074997;28;20167;-85
2022/01/31 03:44:27;;;;;;;17.93;2.70;;;3.10;99.90;;;;;;5075277;28;20193;-87
2022/01/31 03:46:53;;;;;;;16.43;3.50;;;3.10;99.90;;;;;;5075202;28;20174;-83
2022/01/31 03:49:18;;;;;;;11.67;3.20;;;3.20;99.90;;;;;;5075226;28;20173;-82
2022/01/31 03:51:44;;;;;;;14.17;2.30;;;3.20;99.90;;;;;;5075164;28;20168;-81
2022/01/31 03:54:09;;;;;;;14.67;2.87;;;3.10;99.90;;;;;;5075070;28;20610;-84
2022/01/31 03:56:35;;;;;;;7.70;1.20;;;3.10;99.90;;;;;;5074959;28;20165;-86
2022/01/31 03:59:01;;;;;;;8.03;2.40;;;3.10;99.90;;;;;;5074799;28;20580;-85
2022/01/31 04:01:26;;;;;;;13.90;2.60;;;3.10;99.90;;;;;;5074912;28;20403;-85
2022/01/31 04:03:52;;;;;;;12.87;3.17;;;3.00;99.90;;;;;;5075084;28;20835;-86
2022/01/31 04:06:18;;;;;;;13.87;2.77;;;3.00;99.90;;;;;;5075125;28;20176;-87
2022/01/31 04:08:43;;;;;;;13.40;2.07;;;3.00;99.90;;;;;;5074774;28;20216;-86
2022/01/31 04:11:10;;;;;;;19.80;3.90;;;3.00;99.90;;;;;;5074691;28;20242;-85
2022/01/31 04:13:36;;;;;;;15.00;3.20;;;3.00;99.90;;;;;;5074739;28;20221;-87
2022/01/31 04:16:02;;;;;;;9.90;1.47;;;3.00;99.90;;;;;;5074594;28;20419;-86
2022/01/31 04:18:28;;;;;;;8.53;1.70;;;2.90;99.90;;;;;;5075286;28;20457;-83
2022/01/31 04:20:54;;;;;;;13.63;1.53;;;2.90;99.90;;;;;;5075136;28;20418;-87
2022/01/31 04:23:21;;;;;;;9.37;2.13;;;2.90;99.90;;;;;;5074253;28;20416;-88
2022/01/31 04:25:54;;;;;;;18.07;3.50;;;2.90;99.90;;;;;;5074994;28;20637;-87
2022/01/31 04:28:24;;;;;;;12.40;2.10;;;2.80;99.90;;;;;;5074797;28;20417;-88
2022/01/31 04:30:57;;;;;;;8.90;2.17;;;2.80;99.90;;;;;;5075153;28;20810;-88
2022/01/31 04:33:24;;;;;;;9.90;2.50;;;2.80;99.90;;;;;;5074999;28;20822;-86
2022/01/31 04:35:50;;;;;;;13.30;3.53;;;2.80;99.90;;;;;;5074792;28;20507;-87
2022/01/31 04:38:15;;;;;;;10.50;2.20;;;2.80;99.90;;;;;;5074671;28;20460;-87
2022/01/31 04:40:41;;;;;;;8.70;1.73;;;2.80;99.90;;;;;;5074343;28;20813;-83
2022/01/31 04:43:07;;;;;;;10.93;2.37;;;2.80;99.90;;;;;;5072694;28;20178;-86
2022/01/31 04:45:32;;;;;;;12.43;2.17;;;2.80;99.90;;;;;;5074077;28;20626;-87
2022/01/31 04:47:58;;;;;;;10.93;2.70;;;2.80;99.90;;;;;;5074332;28;20166;-87
2022/01/31 04:50:23;;;;;;;10.83;2.30;;;2.70;99.90;;;;;;5074241;28;20585;-83
2022/01/31 04:52:49;;;;;;;13.47;2.47;;;2.70;99.90;;;;;;5074209;28;20169;-87
2022/01/31 04:55:14;;;;;;;5.47;2.00;;;2.70;99.90;;;;;;5074407;28;20169;-86
2022/01/31 04:57:41;;;;;;;13.60;3.87;;;2.70;99.90;;;;;;5073776;28;20181;-88
2022/01/31 05:00:09;;;;;;;8.73;2.00;;;2.70;99.90;;;;;;5074307;28;20202;-88
2022/01/31 05:02:35;;;;;;;8.40;2.17;;;2.60;99.90;;;;;;5074474;28;20458;-85
2022/01/31 05:05:03;;;;;;;6.47;2.00;;;2.70;99.90;;;;;;5074362;28;20477;-89
2022/01/31 05:07:28;;;;;;;18.87;4.03;;;2.70;99.90;;;;;;5074355;28;20400;-88
2022/01/31 05:09:54;;;;;;;6.27;2.00;;;2.70;99.90;;;;;;5074249;28;20415;-88
2022/01/31 05:12:20;;;;;;;16.63;3.47;;;2.70;99.90;;;;;;5073798;28;20578;-87
2022/01/31 05:14:45;;;;;;;10.63;2.57;;;2.70;99.90;;;;;;5073857;28;20271;-87
2022/01/31 05:17:11;;;;;;;17.37;3.33;;;2.70;99.90;;;;;;5072953;28;20204;-85
2022/01/31 05:19:36;;;;;;;13.07;3.33;;;2.70;99.90;;;;;;5074132;28;20161;-86
2022/01/31 05:22:02;;;;;;;9.43;2.10;;;2.70;99.90;;;;;;5073929;28;20656;-88
2022/01/31 05:24:28;;;;;;;7.10;2.20;;;2.70;99.90;;;;;;5073775;28;20228;-87
2022/01/31 05:26:53;;;;;;;19.17;3.30;;;2.70;99.90;;;;;;5073799;28;20176;-89
2022/01/31 05:29:20;;;;;;;16.73;2.93;;;2.70;99.90;;;;;;5073158;28;20173;-85
2022/01/31 05:31:46;;;;;;;22.70;3.33;;;2.70;99.90;;;;;;5073706;28;20414;-87
2022/01/31 05:34:12;;;;;;;10.67;2.57;;;2.70;99.90;;;;;;5074999;28;20421;-87
2022/01/31 05:36:39;;;;;;;12.70;2.80;;;2.70;99.90;;;;;;5075051;28;20411;-90
2022/01/31 05:39:04;;;;;;;10.30;2.97;;;2.70;99.90;;;;;;5074189;28;20403;-89
2022/01/31 05:41:30;;;;;;;6.60;1.30;;;2.70;99.90;;;;;;5073892;28;20418;-89
2022/01/31 05:43:55;;;;;;;8.13;2.57;;;2.70;99.90;;;;;;5073181;28;20641;-83
2022/01/31 05:46:21;;;;;;;14.40;3.73;;;2.80;99.90;;;;;;5073351;28;20259;-87
2022/01/31 05:48:46;;;;;;;16.27;2.90;;;2.80;99.90;;;;;;5073698;28;20170;-88
2022/01/31 05:51:17;;;;;;;10.63;2.50;;;2.80;99.90;;;;;;5073221;28;20174;-85
2022/01/31 05:53:44;;;;;;;9.77;3.73;;;2.80;99.90;;;;;;5073200;28;20220;-86
2022/01/31 05:56:10;;;;;;;20.27;3.80;;;2.80;99.90;;;;;;5073208;28;20443;-86
2022/01/31 05:58:36;;;;;;;5.80;2.40;;;2.90;99.90;;;;;;5072759;28;20511;-87
2022/01/31 06:01:02;;;;;;;21.20;3.10;;;2.90;99.90;;;;;;5073633;28;20447;-87
2022/01/31 06:03:27;;;;;;;12.93;3.10;;;2.90;99.90;;;;;;5073243;28;20169;-86
2022/01/31 06:05:53;;;;;;;14.97;4.00;;;2.80;99.90;;;;;;5072891;28;20479;-87
2022/01/31 06:08:18;;;;;;;13.23;2.67;;;2.80;99.90;;;;;;5072997;28;20200;-84
2022/01/31 06:10:46;;;;;;;20.57;4.23;;;2.80;99.90;;;;;;5073251;28;20679;-82
2022/01/31 06:13:11;;;;;;;12.37;2.73;;;2.80;99.90;;;;;;5072833;28;20257;-88
2022/01/31 06:15:37;;;;;;;15.90;3.03;;;2.80;99.90;;;;;;5073361;28;20400;-87
2022/01/31 06:18:03;;;;;;;16.57;4.10;;;2.80;99.90;;;;;;5073215;28;20669;-87
2022/01/31 06:20:28;;;;;;;10.90;3.00;;;2.80;99.90;;;;;;5072384;28;20521;-81
2022/01/31 06:22:54;;;;;;;15.70;2.90;;;2.80;99.90;;;;;;5072724;28;20195;-89
2022/01/31 06:25:20;;;;;;;12.50;3.27;;;2.80;99.90;;;;;;5071078;28;20695;-88
2022/01/31 06:27:46;;;;;;;24.03;3.30;;;2.80;99.90;;;;;;5072508;28;20690;-87
2022/01/31 06:30:13;;;;;;;13.67;3.00;;;2.70;99.90;;;;;;5073410;28;20412;-87
2022/01/31 06:32:39;;;;;;;23.83;4.70;;;2.70;99.90;;;;;;5073095;28;20407;-88
2022/01/31 06:35:06;;;;;;;10.30;2.60;;;2.60;99.90;;;;;;5073075;28;20468;-83
2022/01/31 06:37:31;;;;;;;9.20;2.53;;;2.60;99.90;;;;;;5071961;28;20423;-87
2022/01/31 06:39:57;;;;;;;12.87;2.80;;;2.50;99.90;;;;;;5074984;28;20410;-88
2022/01/31 06:42:22;;;;;;;19.17;3.53;;;2.50;99.90;;;;;;5076765;28;20652;-88
2022/01/31 06:44:48;;;;;;;12.40;1.70;;;2.50;99.90;;;;;;5075896;28;20204;-88
2022/01/31 06:47:14;;;;;;;13.70;2.30;;;2.50;99.90;;;;;;5077084;28;20177;-87
2022/01/31 06:49:39;;;;;;;12.30;2.90;;;2.50;99.90;;;;;;5077176;28;20282;-89
2022/01/31 06:52:05;;;;;;;16.37;2.93;;;2.40;99.90;;;;;;5077140;28;20565;-88
2022/01/31 06:54:31;;;;;;;10.33;3.37;;;2.30;99.90;;;;;;5076793;28;20311;-87
2022/01/31 06:56:58;;;;;;;8.30;2.10;;;2.30;99.90;;;;;;5076452;28;20961;-86
2022/01/31 06:59:23;;;;;;;19.40;3.80;;;2.30;99.90;;;;;;5077098;28;20165;-89
2022/01/31 07:01:49;;;;;;;15.37;4.10;;;2.30;99.90;;;;;;5076810;28;20422;-89
2022/01/31 07:04:14;;;;;;;9.23;3.27;;;2.30;99.90;;;;;;5076863;28;20200;-89
2022/01/31 07:06:40;;;;;;;13.27;2.97;;;2.30;99.90;;;;;;5077202;28;20184;-90
2022/01/31 07:09:06;;;;;;;14.47;3.27;;;2.30;99.90;;;;;;5077147;28;20191;-87
2022/01/31 07:11:36;;;;;;;13.30;3.70;;;2.30;99.90;;;;;;5076738;28;20538;-89
2022/01/31 07:14:47;;;;;;;12.37;2.30;;;2.30;99.90;;;;;;5076702;28;20962;-89
2022/01/31 07:16:48;;;;;;;10.47;2.60;;;2.30;99.90;;;;;;5076211;28;20420;-89
2022/01/31 07:19:13;;;;;;;13.30;3.73;;;2.30;99.90;;;;;;5077305;28;20804;-87
2022/01/31 07:21:46;;;;;;;15.53;4.30;;;2.30;99.90;;;;;;5078395;28;20176;-89
2022/01/31 07:26:47;;;;;;;10.03;2.90;;;2.30;99.90;;;;;;5077505;28;20919;-88
2022/01/31 07:29:13;;;;;;;14.40;4.53;;;2.30;99.90;;;;;;5077259;28;20419;-89
2022/01/31 07:31:40;;;;;;;10.70;2.70;;;2.30;99.90;;;;;;5077600;28;20427;-90
2022/01/31 07:34:07;;;;;;;14.57;3.60;;;2.30;99.90;;;;;;5077474;28;20177;-90
2022/01/31 07:36:32;;;;;;;9.53;2.67;;;2.20;99.90;;;;;;5076437;28;20407;-87
2022/01/31 07:38:58;;;;;;;13.83;4.80;;;2.20;99.90;;;;;;5074951;28;20900;-87
2022/01/31 07:41:23;;;;;;;14.50;3.97;;;2.20;99.90;;;;;;5075554;28;20176;-90
2022/01/31 07:43:49;;;;;;;6.03;1.83;;;2.10;99.90;;;;;;5075232;28;20169;-87
2022/01/31 07:46:15;;;;;;;10.23;3.50;;;2.10;99.90;;;;;;5075144;28;20711;-86
2022/01/31 07:48:41;;;;;;;10.10;2.60;;;2.10;99.90;;;;;;5075456;28;20703;-85
2022/01/31 07:51:08;;;;;;;9.10;2.70;;;2.10;99.90;;;;;;5074627;28;20264;-86
2022/01/31 07:53:34;;;;;;;10.23;3.20;;;2.10;99.90;;;;;;5075411;28;20407;-87
2022/01/31 07:56:02;;;;;;;12.37;4.03;;;2.00;99.90;;;;;;5075438;28;20443;-87
2022/01/31 07:58:28;;;;;;;10.60;3.30;;;2.10;99.90;;;;;;5076259;28;20416;-89
2022/01/31 08:00:53;;;;;;;12.87;2.80;;;2.00;99.90;;;;;;5076566;28;20929;-89
2022/01/31 08:03:20;;;;;;;24.30;5.73;;;2.00;99.90;;;;;;5076716;28;20252;-88
2022/01/31 08:05:45;;;;;;;13.83;4.50;;;2.00;99.90;;;;;;5076300;28;20243;-87
2022/01/31 08:08:11;;;;;;;10.80;3.13;;;2.00;99.90;;;;;;5077566;28;20412;-86
2022/01/31 08:10:37;;;;;;;13.13;2.93;;;1.90;99.90;;;;;;5078737;28;20201;-88
2022/01/31 08:13:05;;;;;;;15.10;3.67;;;1.90;99.90;;;;;;5077166;28;20208;-86
2022/01/31 08:15:33;;;;;;;15.13;3.43;;;2.00;99.90;;;;;;5076498;28;20970;-89
2022/01/31 08:17:59;;;;;;;17.87;3.87;;;2.00;99.90;;;;;;5075192;28;20424;-89
2022/01/31 08:20:24;;;;;;;14.27;2.60;;;1.90;99.90;;;;;;5075545;28;20502;-89
2022/01/31 08:22:50;;;;;;;12.90;3.00;;;1.90;99.90;;;;;;5074727;28;20177;-87
2022/01/31 08:25:16;;;;;;;9.77;2.70;;;1.90;99.90;;;;;;5075513;28;20254;-89
2022/01/31 08:27:48;;;;;;;16.00;3.67;;;2.00;99.90;;;;;;5075107;28;20215;-89
2022/01/31 08:30:19;;;;;;;11.67;3.40;;;2.10;99.90;;;;;;5075655;28;20607;-89
2022/01/31 08:32:47;;;;;;;15.47;2.97;;;2.10;99.90;;;;;;5075382;28;20407;-89
2022/01/31 08:37:57;;;;;;;10.93;3.10;;;2.20;99.90;;;;;;5077191;28;20426;-89
2022/01/31 08:40:23;;;;;;;11.63;4.40;;;2.10;99.90;;;;;;5076054;28;20909;-90
2022/01/31 08:42:48;;;;;;;10.90;5.73;;;2.10;99.90;;;;;;5074662;28;20179;-86
2022/01/31 08:45:14;;;;;;;11.33;3.80;;;2.10;99.90;;;;;;5074653;28;20232;-85
2022/01/31 08:47:41;;;;;;;12.17;3.90;;;2.20;99.90;;;;;;5077791;28;20221;-85
2022/01/31 08:50:08;;;;;;;18.03;4.77;;;2.10;99.90;;;;;;5074154;28;20161;-87
2022/01/31 08:52:34;;;;;;;12.67;4.00;;;2.20;99.90;;;;;;5074175;28;20400;-87
2022/01/31 08:55:00;;;;;;;8.50;3.20;;;2.20;99.90;;;;;;5074553;28;20514;-88
2022/01/31 08:57:26;;;;;;;19.37;5.43;;;2.20;99.90;;;;;;5075087;28;20176;-87
2022/01/31 08:59:52;;;;;;;10.13;3.97;;;2.30;99.90;;;;;;5075118;28;20415;-88
2022/01/31 09:02:24;;;;;;;11.63;4.20;;;2.40;99.90;;;;;;5075198;28;20618;-87
2022/01/31 09:04:51;;;;;;;14.40;4.73;;;2.40;99.90;;;;;;5074496;28;20966;-88
2022/01/31 09:07:22;;;;;;;9.17;3.77;;;2.40;99.90;;;;;;5075561;28;20425;-90
2022/01/31 09:09:53;;;;;;;17.50;5.70;;;2.40;99.90;;;;;;5076582;28;20453;-89
2022/01/31 09:12:19;;;;;;;9.50;2.67;;;2.50;99.90;;;;;;5075984;28;20404;-90
2022/01/31 09:14:46;;;;;;;18.13;4.77;;;2.50;99.90;;;;;;5075337;28;20555;-89
2022/01/31 09:17:12;;;;;;;8.43;3.10;;;2.60;99.90;;;;;;5074885;28;20915;-90
2022/01/31 09:19:37;;;;;;;11.60;3.37;;;2.70;99.90;;;;;;5074784;28;20951;-89
2022/01/31 09:22:03;;;;;;;8.10;3.40;;;2.90;99.90;;;;;;5074863;28;20415;-90
2022/01/31 09:24:29;;;;;;;11.90;4.43;;;2.70;99.90;;;;;;5073975;28;20202;-86
2022/01/31 09:26:55;;;;;;;8.73;3.30;;;2.70;99.90;;;;;;5073481;28;20412;-85
2022/01/31 09:29:20;;;;;;;13.43;3.33;;;2.70;99.90;;;;;;5074765;28;20766;-89
2022/01/31 09:31:46;;;;;;;11.73;2.90;;;2.70;99.90;;;;;;5073749;28;20722;-87
2022/01/31 09:34:12;;;;;;;11.23;3.43;;;2.80;99.90;;;;;;5073269;28;20169;-86
2022/01/31 09:36:37;;;;;;;13.77;3.37;;;2.80;99.90;;;;;;5073287;28;20194;-87
2022/01/31 09:39:04;;;;;;;12.87;3.97;;;2.80;99.90;;;;;;5073350;28;20407;-86
2022/01/31 09:41:35;;;;;;;12.40;3.57;;;2.90;99.90;;;;;;5076171;28;20182;-83
2022/01/31 09:44:09;;;;;;;9.40;3.03;;;2.80;99.90;;;;;;5079068;28;20820;-87
2022/01/31 09:47:03;;;;;;;6.47;3.60;;;2.70;99.90;;;;;;5080228;28;20435;-87
2022/01/31 09:49:29;;;;;;;19.53;3.50;;;2.70;99.90;;;;;;5082932;28;20431;-86
2022/01/31 09:51:54;;;;;;;10.40;3.83;;;2.70;99.90;;;;;;5080989;28;20506;-86
2022/01/31 09:54:20;;;;;;;11.97;3.50;;;2.70;99.90;;;;;;5078430;28;20182;-88
2022/01/31 09:56:50;;;;;;;7.90;3.60;;;2.80;99.90;;;;;;5073046;28;20618;-86
2022/01/31 09:59:17;;;;;;;11.73;3.63;;;2.80;99.90;;;;;;5075786;28;20415;-86
2022/01/31 10:01:49;;;;;;;8.60;3.87;;;2.80;99.90;;;;;;5080197;28;20415;-87
2022/01/31 10:04:24;;;;;;;10.60;2.83;;;2.80;99.90;;;;;;5076395;28;20560;-86
2022/01/31 10:06:52;;;;;;;9.97;3.80;;;2.80;99.90;;;;;;5080819;28;20419;-84
2022/01/31 10:09:27;;;;;;;8.20;2.10;;;2.90;99.90;;;;;;5089025;28;20443;-86
2022/01/31 10:12:27;;;;;;;12.73;3.10;;;3.10;99.90;;;;;;5086137;28;20416;-82
2022/01/31 10:17:44;;;;;;;7.97;3.93;;;3.00;99.90;;;;;;5085866;28;20415;-82
2022/01/31 10:20:29;;;;;;;11.20;4.00;;;3.00;99.90;;;;;;5084561;28;20407;-85
2022/01/31 10:23:04;;;;;;;6.13;4.20;;;3.20;99.90;;;;;;5086138;28;20399;-83
2022/01/31 10:25:32;;;;;;;15.63;4.13;;;3.30;99.90;;;;;;5084645;28;20542;-85
2022/01/31 10:27:58;;;;;;;11.40;5.10;;;3.40;99.90;;;;;;5086984;28;20427;-86
2022/01/31 10:30:26;;;;;;;8.67;3.40;;;3.30;99.90;;;;;;5093934;28;20418;-85
2022/01/31 10:32:55;;;;;;;8.80;3.93;;;3.30;99.90;;;;;;5092959;28;20184;-87
2022/01/31 10:35:28;;;;;;;12.87;3.90;;;3.40;99.90;;;;;;5093202;28;20419;-87
2022/01/31 10:37:56;;;;;;;12.60;3.80;;;3.30;99.90;;;;;;5095883;28;20404;-85
2022/01/31 10:43:47;;;;;;;9.50;3.73;;;3.20;99.90;;;;;;5078869;28;20425;-87
2022/01/31 10:50:37;;;;;;;8.30;3.10;;;3.20;99.90;;;;;;5076262;28;21119;-86
2022/01/31 10:52:01;;;;;;;4.77;2.93;;;3.20;99.90;;;;;;5076220;28;20442;-87
2022/01/31 10:56:58;;;;;;;9.97;3.37;;;3.20;99.90;;;;;;5075779;28;20430;-81
2022/01/31 10:59:35;;;;;;;5.50;3.07;;;3.30;99.90;;;;;;5076187;28;20464;-84
2022/01/31 11:02:05;;;;;;;11.17;4.03;;;3.40;99.90;;;;;;5076106;28;20468;-87
2022/01/31 11:04:40;;;;;;;5.40;2.43;;;3.30;99.90;;;;;;5074818;28;20474;-88
2022/01/31 11:07:12;;;;;;;8.70;3.73;;;3.30;99.90;;;;;;5076042;28;20407;-85
2022/01/31 11:09:39;;;;;;;10.30;2.97;;;3.40;99.90;;;;;;5074503;28;20449;-87
2022/01/31 11:12:06;;;;;;;4.97;2.30;;;3.40;99.90;;;;;;5074290;28;20427;-87
2022/01/31 11:14:33;;;;;;;8.07;3.40;;;3.40;99.90;;;;;;5075420;28;20463;-85
2022/01/31 11:17:10;;;;;;;12.20;3.60;;;3.30;99.90;;;;;;5075793;28;20407;-85
2022/01/31 11:19:36;;;;;;;8.63;4.30;;;3.40;99.90;;;;;;5075479;28;20417;-86
2022/01/31 11:22:07;;;;;;;12.90;4.07;;;3.40;99.90;;;;;;5075303;28;20924;-84
2022/01/31 11:24:49;;;;;;;5.23;3.50;;;3.50;99.90;;;;;;5075187;28;20455;-86
2022/01/31 11:27:25;;;;;;;13.00;3.23;;;3.40;99.90;;;;;;5073582;28;20404;-86
2022/01/31 11:29:55;;;;;;;8.07;4.20;;;3.20;99.90;;;;;;5074797;28;20403;-86
2022/01/31 11:32:21;;;;;;;5.90;3.03;;;3.10;99.90;;;;;;5075141;28;20981;-86
2022/01/31 11:34:47;;;;;;;11.67;4.87;;;3.10;99.90;;;;;;5074798;28;20455;-85
2022/01/31 11:37:16;;;;;;;5.77;3.27;;;3.20;99.90;;;;;;5074838;28;20431;-86
2022/01/31 11:39:46;;;;;;;5.67;3.33;;;3.30;99.90;;;;;;5074670;28;20975;-84
2022/01/31 11:42:13;;;;;;;6.70;2.97;;;3.40;99.90;;;;;;5074547;28;20468;-85
2022/01/31 11:44:45;;;;;;;6.23;3.13;;;3.50;99.90;;;;;;5074801;28;20543;-86
2022/01/31 11:47:10;;;;;;;8.60;3.63;;;3.50;99.90;;;;;;5073663;28;20420;-85
2022/01/31 11:49:52;;;;;;;4.90;2.37;;;3.50;99.90;;;;;;5063466;28;20407;-85
2022/01/31 11:52:19;;;;;;;7.97;3.27;;;3.50;99.90;;;;;;5052321;28;20192;-84
2022/01/31 11:54:54;;;;;;;5.00;2.70;;;3.60;99.90;;;;;;5054541;28;20462;-82
2022/01/31 11:57:28;;;;;;;5.03;2.57;;;3.70;99.90;;;;;;5054765;28;20930;-83
2022/01/31 12:00:12;;;;;;;6.13;2.83;;;3.70;99.90;;;;;;5054662;28;20510;-87
2022/01/31 12:02:52;;;;;;;6.53;2.80;;;3.70;99.90;;;;;;5054512;28;20471;-85
2022/01/31 12:05:22;;;;;;;3.63;2.20;;;3.80;99.90;;;;;;5055978;28;20487;-90
2022/01/31 12:07:59;;;;;;;3.70;2.37;;;3.90;99.90;;;;;;5054990;28;20455;-86
2022/01/31 12:10:34;;;;;;;2.63;1.80;;;3.60;99.90;;;;;;5055915;28;20407;-86
2022/01/31 12:13:25;;;;;;;5.00;2.57;;;3.70;99.90;;;;;;5055198;28;20771;-89
2022/01/31 12:15:56;;;;;;;8.47;2.07;;;3.60;99.90;;;;;;5055080;28;20420;-88
2022/01/31 12:24:02;;;;;;;4.30;2.93;;;3.80;99.90;;;;;;5055175;28;20920;-85
2022/01/31 12:26:39;;;;;;;3.13;2.83;;;3.80;99.90;;;;;;5055169;28;20416;-90
2022/01/31 12:29:10;;;;;;;3.90;2.67;;;3.60;99.90;;;;;;5055442;28;20965;-89
2022/01/31 12:31:38;;;;;;;3.67;2.37;;;3.60;99.90;;;;;;5055253;28;20428;-89
2022/01/31 12:34:20;;;;;;;4.43;2.80;;;3.40;99.90;;;;;;5055184;28;20412;-86
2022/01/31 12:36:46;;;;;;;5.20;2.63;;;3.60;99.90;;;;;;5054659;28;20514;-87
2022/01/31 12:39:30;;;;;;;5.43;2.60;;;3.70;99.90;;;;;;5055109;28;20467;-83
2022/01/31 12:42:14;;;;;;;5.20;2.73;;;3.70;99.90;;;;;;5054874;28;20435;-87
2022/01/31 12:44:42;;;;;;;4.90;2.53;;;3.60;99.90;;;;;;5054991;28;20458;-90
2022/01/31 12:47:11;;;;;;;4.97;2.10;;;3.50;99.90;;;;;;5054925;28;20950;-90
2022/01/31 12:49:37;;;;;;;5.50;2.37;;;3.30;99.90;;;;;;5053440;28;20419;-86
2022/01/31 12:52:05;;;;;;;5.10;2.57;;;3.30;99.90;;;;;;5053120;28;20420;-89
2022/01/31 12:54:32;;;;;;;4.37;2.40;;;3.30;99.90;;;;;;5053775;28;20439;-84
2022/01/31 12:57:08;;;;;;;6.47;2.67;;;3.40;99.90;;;;;;5053369;28;20424;-83
2022/01/31 12:59:34;;;;;;;5.23;2.97;;;3.50;99.90;;;;;;5053553;28;20421;-86
2022/01/31 13:02:05;;;;;;;7.23;3.37;;;3.90;99.90;;;;;;5052158;28;20461;-85
2022/01/31 13:04:30;;;;;;;3.90;2.67;;;3.70;99.90;;;;;;5053454;28;20202;-84
2022/01/31 13:07:05;;;;;;;8.97;3.40;;;3.70;99.90;;;;;;5053553;28;20469;-86
2022/01/31 13:09:37;;;;;;;5.00;3.30;;;3.80;99.90;;;;;;5053550;28;20180;-87
2022/01/31 13:12:14;;;;;;;5.23;3.73;;;3.70;99.90;;;;;;5053016;28;20465;-84
2022/01/31 13:14:48;;;;;;;5.43;3.07;;;3.80;99.90;;;;;;5053424;28;20571;-87
2022/01/31 13:17:19;;;;;;;6.93;3.83;;;4.00;99.90;;;;;;5053457;28;20403;-87